sensor_id;sensor_type;location;lat;lon;timestamp;P1;durP1;ratioP1;P2;durP2;ratioP2
67274;SDS011;55463;52.324;5.122;2023-02-22T00:02:10;98.57;;;29.27;;
67274;SDS011;55463;52.324;5.122;2023-02-22T00:04:38;98.43;;;26.38;;
67274;SDS011;55463;52.324;5.122;2023-02-22T00:07:04;92.18;;;27.73;;
67274;SDS011;55463;52.324;5.122;2023-02-22T00:09:30;100.53;;;27.83;;
67274;SDS011;55463;52.324;5.122;2023-02-22T00:12:03;90.65;;;25.77;;
67274;SDS011;55463;52.324;5.122;2023-02-22T00:14:32;96.72;;;27.83;;
67274;SDS011;55463;52.324;5.122;2023-02-22T00:17:08;96.85;;;26.48;;
67274;SDS011;55463;52.324;5.122;2023-02-22T00:19:37;91.28;;;26.40;;
67274;SDS011;55463;52.324;5.122;2023-02-22T00:22:07;88.90;;;24.98;;
67274;SDS011;55463;52.324;5.122;2023-02-22T00:24:32;86.60;;;24.98;;
67274;SDS011;55463;52.324;5.122;2023-02-22T00:27:00;89.45;;;23.70;;
67274;SDS011;55463;52.324;5.122;2023-02-22T00:29:27;87.20;;;23.75;;
67274;SDS011;55463;52.324;5.122;2023-02-22T00:31:53;89.07;;;23.65;;
67274;SDS011;55463;52.324;5.122;2023-02-22T00:34:22;92.03;;;24.52;;
67274;SDS011;55463;52.324;5.122;2023-02-22T00:36:48;84.50;;;24.75;;
67274;SDS011;55463;52.324;5.122;2023-02-22T00:39:13;76.53;;;23.95;;
67274;SDS011;55463;52.324;5.122;2023-02-22T00:41:44;73.38;;;22.52;;
67274;SDS011;55463;52.324;5.122;2023-02-22T00:44:10;79.78;;;22.95;;
67274;SDS011;55463;52.324;5.122;2023-02-22T00:46:38;85.80;;;23.77;;
67274;SDS011;55463;52.324;5.122;2023-02-22T00:49:04;86.45;;;24.55;;
67274;SDS011;55463;52.324;5.122;2023-02-22T00:51:29;81.78;;;24.25;;
67274;SDS011;55463;52.324;5.122;2023-02-22T00:53:55;76.45;;;23.23;;
67274;SDS011;55463;52.324;5.122;2023-02-22T00:56:20;79.43;;;23.48;;
67274;SDS011;55463;52.324;5.122;2023-02-22T00:58:46;77.22;;;23.38;;
67274;SDS011;55463;52.324;5.122;2023-02-22T01:01:11;73.53;;;21.38;;
67274;SDS011;55463;52.324;5.122;2023-02-22T01:03:37;90.75;;;24.20;;
67274;SDS011;55463;52.324;5.122;2023-02-22T01:06:05;75.20;;;23.55;;
67274;SDS011;55463;52.324;5.122;2023-02-22T01:08:31;76.88;;;22.50;;
67274;SDS011;55463;52.324;5.122;2023-02-22T01:10:56;80.22;;;24.05;;
67274;SDS011;55463;52.324;5.122;2023-02-22T01:13:22;69.28;;;23.38;;
67274;SDS011;55463;52.324;5.122;2023-02-22T01:15:47;66.95;;;22.83;;
67274;SDS011;55463;52.324;5.122;2023-02-22T01:18:13;82.43;;;25.75;;
67274;SDS011;55463;52.324;5.122;2023-02-22T01:20:46;69.97;;;22.98;;
67274;SDS011;55463;52.324;5.122;2023-02-22T01:23:14;66.55;;;22.67;;
67274;SDS011;55463;52.324;5.122;2023-02-22T01:25:44;70.25;;;24.02;;
67274;SDS011;55463;52.324;5.122;2023-02-22T01:28:18;71.13;;;23.60;;
67274;SDS011;55463;52.324;5.122;2023-02-22T01:30:46;66.43;;;23.25;;
67274;SDS011;55463;52.324;5.122;2023-02-22T01:33:12;74.43;;;25.30;;
67274;SDS011;55463;52.324;5.122;2023-02-22T01:35:42;71.90;;;25.30;;
67274;SDS011;55463;52.324;5.122;2023-02-22T01:38:10;73.35;;;24.73;;
67274;SDS011;55463;52.324;5.122;2023-02-22T01:40:38;66.65;;;24.70;;
67274;SDS011;55463;52.324;5.122;2023-02-22T01:43:18;54.28;;;19.33;;
67274;SDS011;55463;52.324;5.122;2023-02-22T01:46:00;70.28;;;23.25;;
67274;SDS011;55463;52.324;5.122;2023-02-22T01:48:39;64.40;;;22.85;;
67274;SDS011;55463;52.324;5.122;2023-02-22T01:56:25;60.97;;;23.52;;
67274;SDS011;55463;52.324;5.122;2023-02-22T01:58:56;70.50;;;23.90;;
67274;SDS011;55463;52.324;5.122;2023-02-22T02:01:25;68.78;;;23.88;;
67274;SDS011;55463;52.324;5.122;2023-02-22T02:03:57;69.18;;;24.13;;
67274;SDS011;55463;52.324;5.122;2023-02-22T02:06:25;68.60;;;24.85;;
67274;SDS011;55463;52.324;5.122;2023-02-22T02:09:08;66.32;;;24.67;;
67274;SDS011;55463;52.324;5.122;2023-02-22T02:11:34;64.30;;;23.85;;
67274;SDS011;55463;52.324;5.122;2023-02-22T02:14:00;60.08;;;22.52;;
67274;SDS011;55463;52.324;5.122;2023-02-22T02:16:31;68.30;;;24.65;;
67274;SDS011;55463;52.324;5.122;2023-02-22T02:19:03;59.42;;;23.50;;
67274;SDS011;55463;52.324;5.122;2023-02-22T02:21:40;66.43;;;24.80;;
67274;SDS011;55463;52.324;5.122;2023-02-22T02:24:18;55.35;;;23.55;;
67274;SDS011;55463;52.324;5.122;2023-02-22T02:27:12;62.28;;;23.60;;
67274;SDS011;55463;52.324;5.122;2023-02-22T02:32:51;63.10;;;23.58;;
67274;SDS011;55463;52.324;5.122;2023-02-22T02:40:41;51.67;;;22.73;;
67274;SDS011;55463;52.324;5.122;2023-02-22T02:43:19;52.45;;;20.98;;
67274;SDS011;55463;52.324;5.122;2023-02-22T02:45:53;50.15;;;20.52;;
67274;SDS011;55463;52.324;5.122;2023-02-22T02:48:30;53.83;;;22.65;;
67274;SDS011;55463;52.324;5.122;2023-02-22T02:50:57;57.95;;;23.33;;
67274;SDS011;55463;52.324;5.122;2023-02-22T02:53:34;57.70;;;23.27;;
67274;SDS011;55463;52.324;5.122;2023-02-22T02:56:02;55.40;;;22.98;;
67274;SDS011;55463;52.324;5.122;2023-02-22T02:58:28;58.95;;;22.60;;
67274;SDS011;55463;52.324;5.122;2023-02-22T03:00:55;57.95;;;23.17;;
67274;SDS011;55463;52.324;5.122;2023-02-22T03:11:14;51.72;;;20.10;;
67274;SDS011;55463;52.324;5.122;2023-02-22T03:16:51;57.55;;;22.45;;
67274;SDS011;55463;52.324;5.122;2023-02-22T03:19:32;52.80;;;21.50;;
67274;SDS011;55463;52.324;5.122;2023-02-22T03:30:04;52.60;;;21.65;;
67274;SDS011;55463;52.324;5.122;2023-02-22T03:32:35;56.42;;;22.20;;
67274;SDS011;55463;52.324;5.122;2023-02-22T03:37:41;58.97;;;22.85;;
67274;SDS011;55463;52.324;5.122;2023-02-22T03:40:12;58.08;;;22.65;;
67274;SDS011;55463;52.324;5.122;2023-02-22T03:42:43;55.25;;;21.42;;
67274;SDS011;55463;52.324;5.122;2023-02-22T03:45:16;61.30;;;23.20;;
67274;SDS011;55463;52.324;5.122;2023-02-22T03:47:45;56.00;;;22.08;;
67274;SDS011;55463;52.324;5.122;2023-02-22T03:50:18;61.97;;;22.17;;
67274;SDS011;55463;52.324;5.122;2023-02-22T03:52:46;62.10;;;23.98;;
67274;SDS011;55463;52.324;5.122;2023-02-22T03:55:13;58.53;;;22.52;;
67274;SDS011;55463;52.324;5.122;2023-02-22T03:57:42;55.60;;;21.63;;
67274;SDS011;55463;52.324;5.122;2023-02-22T04:00:13;56.25;;;20.98;;
67274;SDS011;55463;52.324;5.122;2023-02-22T04:02:42;59.75;;;22.85;;
67274;SDS011;55463;52.324;5.122;2023-02-22T04:05:08;63.38;;;24.13;;
67274;SDS011;55463;52.324;5.122;2023-02-22T04:07:34;59.60;;;23.02;;
67274;SDS011;55463;52.324;5.122;2023-02-22T04:09:59;54.83;;;21.35;;
67274;SDS011;55463;52.324;5.122;2023-02-22T04:12:27;62.30;;;23.30;;
67274;SDS011;55463;52.324;5.122;2023-02-22T04:14:52;62.47;;;24.10;;
67274;SDS011;55463;52.324;5.122;2023-02-22T04:17:18;64.22;;;23.60;;
67274;SDS011;55463;52.324;5.122;2023-02-22T04:19:43;64.65;;;23.52;;
67274;SDS011;55463;52.324;5.122;2023-02-22T04:22:10;63.55;;;23.85;;
67274;SDS011;55463;52.324;5.122;2023-02-22T04:24:35;70.60;;;23.63;;
67274;SDS011;55463;52.324;5.122;2023-02-22T04:27:01;61.28;;;23.40;;
67274;SDS011;55463;52.324;5.122;2023-02-22T04:29:27;71.43;;;24.35;;
67274;SDS011;55463;52.324;5.122;2023-02-22T04:31:53;71.35;;;24.05;;
67274;SDS011;55463;52.324;5.122;2023-02-22T04:34:18;73.45;;;23.98;;
67274;SDS011;55463;52.324;5.122;2023-02-22T04:36:44;73.65;;;23.80;;
67274;SDS011;55463;52.324;5.122;2023-02-22T04:39:10;84.45;;;24.98;;
67274;SDS011;55463;52.324;5.122;2023-02-22T04:41:35;78.10;;;24.02;;
67274;SDS011;55463;52.324;5.122;2023-02-22T04:44:01;73.63;;;23.60;;
67274;SDS011;55463;52.324;5.122;2023-02-22T04:46:26;80.82;;;24.17;;
67274;SDS011;55463;52.324;5.122;2023-02-22T04:48:52;75.70;;;24.35;;
67274;SDS011;55463;52.324;5.122;2023-02-22T04:51:18;87.72;;;25.95;;
67274;SDS011;55463;52.324;5.122;2023-02-22T04:53:47;79.53;;;24.58;;
67274;SDS011;55463;52.324;5.122;2023-02-22T04:56:12;74.97;;;23.85;;
67274;SDS011;55463;52.324;5.122;2023-02-22T04:58:38;81.35;;;24.10;;
67274;SDS011;55463;52.324;5.122;2023-02-22T05:01:03;76.30;;;25.02;;
67274;SDS011;55463;52.324;5.122;2023-02-22T05:03:29;72.82;;;23.17;;
67274;SDS011;55463;52.324;5.122;2023-02-22T05:05:54;70.50;;;22.73;;
67274;SDS011;55463;52.324;5.122;2023-02-22T05:08:20;65.57;;;21.20;;
67274;SDS011;55463;52.324;5.122;2023-02-22T05:10:45;67.72;;;23.75;;
67274;SDS011;55463;52.324;5.122;2023-02-22T05:13:13;65.70;;;22.42;;
67274;SDS011;55463;52.324;5.122;2023-02-22T05:15:38;67.75;;;23.00;;
67274;SDS011;55463;52.324;5.122;2023-02-22T05:18:06;64.82;;;21.50;;
67274;SDS011;55463;52.324;5.122;2023-02-22T05:20:33;72.05;;;23.02;;
67274;SDS011;55463;52.324;5.122;2023-02-22T05:23:00;75.57;;;25.10;;
67274;SDS011;55463;52.324;5.122;2023-02-22T05:25:26;74.93;;;23.05;;
67274;SDS011;55463;52.324;5.122;2023-02-22T05:27:53;74.70;;;23.38;;
67274;SDS011;55463;52.324;5.122;2023-02-22T05:30:24;79.47;;;25.05;;
67274;SDS011;55463;52.324;5.122;2023-02-22T05:32:51;76.53;;;23.98;;
67274;SDS011;55463;52.324;5.122;2023-02-22T05:35:17;79.22;;;24.65;;
67274;SDS011;55463;52.324;5.122;2023-02-22T05:37:44;79.85;;;24.42;;
67274;SDS011;55463;52.324;5.122;2023-02-22T05:40:11;80.70;;;23.92;;
67274;SDS011;55463;52.324;5.122;2023-02-22T05:42:39;75.40;;;24.30;;
67274;SDS011;55463;52.324;5.122;2023-02-22T05:45:10;74.35;;;23.80;;
67274;SDS011;55463;52.324;5.122;2023-02-22T05:47:37;76.30;;;25.45;;
67274;SDS011;55463;52.324;5.122;2023-02-22T05:50:02;77.25;;;25.08;;
67274;SDS011;55463;52.324;5.122;2023-02-22T05:52:28;82.97;;;24.90;;
67274;SDS011;55463;52.324;5.122;2023-02-22T05:54:53;80.32;;;24.02;;
67274;SDS011;55463;52.324;5.122;2023-02-22T05:57:19;72.68;;;24.50;;
67274;SDS011;55463;52.324;5.122;2023-02-22T05:59:44;88.22;;;25.13;;
67274;SDS011;55463;52.324;5.122;2023-02-22T06:02:10;80.32;;;25.40;;
67274;SDS011;55463;52.324;5.122;2023-02-22T06:04:35;78.25;;;24.35;;
67274;SDS011;55463;52.324;5.122;2023-02-22T06:07:01;76.97;;;25.08;;
67274;SDS011;55463;52.324;5.122;2023-02-22T06:09:26;72.75;;;24.48;;
67274;SDS011;55463;52.324;5.122;2023-02-22T06:11:51;85.85;;;26.85;;
67274;SDS011;55463;52.324;5.122;2023-02-22T06:14:17;82.60;;;24.98;;
67274;SDS011;55463;52.324;5.122;2023-02-22T06:16:42;84.80;;;26.45;;
67274;SDS011;55463;52.324;5.122;2023-02-22T06:19:08;75.22;;;25.25;;
67274;SDS011;55463;52.324;5.122;2023-02-22T06:21:33;77.60;;;26.13;;
67274;SDS011;55463;52.324;5.122;2023-02-22T06:24:00;86.43;;;25.95;;
67274;SDS011;55463;52.324;5.122;2023-02-22T06:26:31;75.40;;;25.27;;
67274;SDS011;55463;52.324;5.122;2023-02-22T06:28:56;90.82;;;26.75;;
67274;SDS011;55463;52.324;5.122;2023-02-22T06:31:21;83.85;;;26.92;;
67274;SDS011;55463;52.324;5.122;2023-02-22T06:33:47;94.32;;;26.65;;
67274;SDS011;55463;52.324;5.122;2023-02-22T06:36:12;98.88;;;26.45;;
67274;SDS011;55463;52.324;5.122;2023-02-22T06:38:38;88.22;;;26.95;;
67274;SDS011;55463;52.324;5.122;2023-02-22T06:41:03;90.85;;;27.38;;
67274;SDS011;55463;52.324;5.122;2023-02-22T06:43:29;94.07;;;26.95;;
67274;SDS011;55463;52.324;5.122;2023-02-22T06:45:54;94.07;;;27.73;;
67274;SDS011;55463;52.324;5.122;2023-02-22T06:48:20;84.63;;;26.65;;
67274;SDS011;55463;52.324;5.122;2023-02-22T06:50:47;92.93;;;27.02;;
67274;SDS011;55463;52.324;5.122;2023-02-22T06:53:13;92.78;;;27.08;;
67274;SDS011;55463;52.324;5.122;2023-02-22T06:55:39;94.20;;;26.65;;
67274;SDS011;55463;52.324;5.122;2023-02-22T06:58:04;97.20;;;26.45;;
67274;SDS011;55463;52.324;5.122;2023-02-22T07:00:35;83.60;;;25.13;;
67274;SDS011;55463;52.324;5.122;2023-02-22T07:03:15;85.10;;;25.05;;
67274;SDS011;55463;52.324;5.122;2023-02-22T07:05:43;101.30;;;27.23;;
67274;SDS011;55463;52.324;5.122;2023-02-22T07:08:08;98.07;;;27.23;;
67274;SDS011;55463;52.324;5.122;2023-02-22T07:10:35;82.55;;;24.85;;
67274;SDS011;55463;52.324;5.122;2023-02-22T07:13:02;99.93;;;27.70;;
67274;SDS011;55463;52.324;5.122;2023-02-22T07:15:29;141.90;;;30.08;;
67274;SDS011;55463;52.324;5.122;2023-02-22T07:17:56;133.10;;;28.02;;
67274;SDS011;55463;52.324;5.122;2023-02-22T07:20:22;242.23;;;38.47;;
67274;SDS011;55463;52.324;5.122;2023-02-22T07:22:49;95.03;;;26.58;;
67274;SDS011;55463;52.324;5.122;2023-02-22T07:25:17;80.75;;;25.00;;
67274;SDS011;55463;52.324;5.122;2023-02-22T07:27:46;84.35;;;25.70;;
67274;SDS011;55463;52.324;5.122;2023-02-22T07:30:19;98.22;;;28.08;;
67274;SDS011;55463;52.324;5.122;2023-02-22T07:32:50;94.82;;;26.83;;
67274;SDS011;55463;52.324;5.122;2023-02-22T07:35:21;82.47;;;25.52;;
67274;SDS011;55463;52.324;5.122;2023-02-22T07:37:48;103.70;;;28.05;;
67274;SDS011;55463;52.324;5.122;2023-02-22T07:40:14;207.50;;;31.67;;
67274;SDS011;55463;52.324;5.122;2023-02-22T07:46:07;84.18;;;25.40;;
67274;SDS011;55463;52.324;5.122;2023-02-22T07:48:32;93.85;;;26.85;;
67274;SDS011;55463;52.324;5.122;2023-02-22T07:51:24;81.10;;;27.05;;
67274;SDS011;55463;52.324;5.122;2023-02-22T07:54:00;87.85;;;24.95;;
67274;SDS011;55463;52.324;5.122;2023-02-22T07:56:25;92.35;;;27.85;;
67274;SDS011;55463;52.324;5.122;2023-02-22T07:58:54;79.70;;;25.90;;
67274;SDS011;55463;52.324;5.122;2023-02-22T08:01:30;87.32;;;26.35;;
67274;SDS011;55463;52.324;5.122;2023-02-22T08:04:06;87.03;;;26.02;;
67274;SDS011;55463;52.324;5.122;2023-02-22T08:06:45;85.50;;;24.88;;
67274;SDS011;55463;52.324;5.122;2023-02-22T08:09:10;90.72;;;27.48;;
67274;SDS011;55463;52.324;5.122;2023-02-22T08:28:04;82.35;;;25.92;;
67274;SDS011;55463;52.324;5.122;2023-02-22T08:30:31;83.03;;;26.25;;
67274;SDS011;55463;52.324;5.122;2023-02-22T08:32:59;87.28;;;25.77;;
67274;SDS011;55463;52.324;5.122;2023-02-22T08:35:26;84.50;;;26.75;;
67274;SDS011;55463;52.324;5.122;2023-02-22T08:40:41;87.22;;;25.70;;
67274;SDS011;55463;52.324;5.122;2023-02-22T08:43:06;81.75;;;26.30;;
67274;SDS011;55463;52.324;5.122;2023-02-22T08:45:32;79.85;;;26.38;;
67274;SDS011;55463;52.324;5.122;2023-02-22T08:47:57;75.07;;;25.38;;
67274;SDS011;55463;52.324;5.122;2023-02-22T08:50:46;65.82;;;23.90;;
67274;SDS011;55463;52.324;5.122;2023-02-22T08:53:12;70.70;;;25.67;;
67274;SDS011;55463;52.324;5.122;2023-02-22T08:55:39;71.05;;;24.80;;
67274;SDS011;55463;52.324;5.122;2023-02-22T08:58:06;69.53;;;25.02;;
67274;SDS011;55463;52.324;5.122;2023-02-22T09:00:52;62.90;;;22.30;;
67274;SDS011;55463;52.324;5.122;2023-02-22T09:03:17;67.07;;;23.45;;
67274;SDS011;55463;52.324;5.122;2023-02-22T09:05:43;73.07;;;25.80;;
67274;SDS011;55463;52.324;5.122;2023-02-22T09:08:09;69.07;;;23.05;;
67274;SDS011;55463;52.324;5.122;2023-02-22T09:10:50;61.78;;;23.45;;
67274;SDS011;55463;52.324;5.122;2023-02-22T09:15:41;63.70;;;23.25;;
67274;SDS011;55463;52.324;5.122;2023-02-22T09:18:07;62.40;;;23.77;;
67274;SDS011;55463;52.324;5.122;2023-02-22T09:20:34;68.30;;;24.35;;
67274;SDS011;55463;52.324;5.122;2023-02-22T09:23:13;58.97;;;22.20;;
67274;SDS011;55463;52.324;5.122;2023-02-22T09:25:39;63.05;;;24.38;;
67274;SDS011;55463;52.324;5.122;2023-02-22T09:28:05;61.70;;;24.00;;
67274;SDS011;55463;52.324;5.122;2023-02-22T09:30:31;56.60;;;22.48;;
67274;SDS011;55463;52.324;5.122;2023-02-22T09:32:59;57.28;;;24.52;;
67274;SDS011;55463;52.324;5.122;2023-02-22T09:35:47;60.67;;;24.23;;
67274;SDS011;55463;52.324;5.122;2023-02-22T09:38:18;53.70;;;23.52;;
67274;SDS011;55463;52.324;5.122;2023-02-22T09:40:51;55.90;;;23.35;;
67274;SDS011;55463;52.324;5.122;2023-02-22T09:46:18;50.53;;;22.08;;
67274;SDS011;55463;52.324;5.122;2023-02-22T09:57:25;44.65;;;20.13;;
67274;SDS011;55463;52.324;5.122;2023-02-22T09:59:58;42.92;;;20.88;;
67274;SDS011;55463;52.324;5.122;2023-02-22T10:06:05;41.17;;;18.63;;
67274;SDS011;55463;52.324;5.122;2023-02-22T10:08:35;39.03;;;19.27;;
67274;SDS011;55463;52.324;5.122;2023-02-22T10:22:55;41.25;;;19.67;;
67274;SDS011;55463;52.324;5.122;2023-02-22T10:25:39;37.83;;;18.90;;
67274;SDS011;55463;52.324;5.122;2023-02-22T10:31:06;36.22;;;19.35;;
67274;SDS011;55463;52.324;5.122;2023-02-22T10:33:35;57.80;;;20.10;;
67274;SDS011;55463;52.324;5.122;2023-02-22T10:36:07;35.47;;;18.55;;
67274;SDS011;55463;52.324;5.122;2023-02-22T10:38:56;36.67;;;18.92;;
67274;SDS011;55463;52.324;5.122;2023-02-22T10:41:30;39.75;;;18.48;;
67274;SDS011;55463;52.324;5.122;2023-02-22T10:44:00;39.85;;;18.42;;
67274;SDS011;55463;52.324;5.122;2023-02-22T10:46:43;35.97;;;18.40;;
67274;SDS011;55463;52.324;5.122;2023-02-22T10:49:09;33.75;;;18.60;;
67274;SDS011;55463;52.324;5.122;2023-02-22T10:51:37;39.63;;;18.73;;
67274;SDS011;55463;52.324;5.122;2023-02-22T10:56:58;34.83;;;17.85;;
67274;SDS011;55463;52.324;5.122;2023-02-22T10:59:45;31.77;;;17.30;;
67274;SDS011;55463;52.324;5.122;2023-02-22T11:02:23;33.20;;;17.92;;
67274;SDS011;55463;52.324;5.122;2023-02-22T11:04:58;31.13;;;17.80;;
67274;SDS011;55463;52.324;5.122;2023-02-22T11:10:14;29.73;;;16.17;;
67274;SDS011;55463;52.324;5.122;2023-02-22T11:12:58;28.83;;;16.75;;
67274;SDS011;55463;52.324;5.122;2023-02-22T11:15:53;29.58;;;16.60;;
67274;SDS011;55463;52.324;5.122;2023-02-22T11:18:22;28.48;;;15.38;;
67274;SDS011;55463;52.324;5.122;2023-02-22T11:20:57;30.00;;;16.23;;
67274;SDS011;55463;52.324;5.122;2023-02-22T11:23:24;27.33;;;15.48;;
67274;SDS011;55463;52.324;5.122;2023-02-22T11:26:06;29.73;;;16.52;;
67274;SDS011;55463;52.324;5.122;2023-02-22T11:28:45;28.23;;;17.25;;
67274;SDS011;55463;52.324;5.122;2023-02-22T11:34:08;28.52;;;15.48;;
67274;SDS011;55463;52.324;5.122;2023-02-22T11:36:55;27.02;;;15.27;;
67274;SDS011;55463;52.324;5.122;2023-02-22T11:39:39;28.00;;;15.55;;
67274;SDS011;55463;52.324;5.122;2023-02-22T11:42:21;31.30;;;15.57;;
67274;SDS011;55463;52.324;5.122;2023-02-22T11:50:25;26.63;;;14.80;;
67274;SDS011;55463;52.324;5.122;2023-02-22T11:53:29;28.67;;;14.85;;
67274;SDS011;55463;52.324;5.122;2023-02-22T11:56:24;29.10;;;14.82;;
67274;SDS011;55463;52.324;5.122;2023-02-22T12:01:42;30.88;;;14.52;;
67274;SDS011;55463;52.324;5.122;2023-02-22T12:15:02;28.85;;;16.42;;
67274;SDS011;55463;52.324;5.122;2023-02-22T12:20:25;29.23;;;15.63;;
67274;SDS011;55463;52.324;5.122;2023-02-22T12:23:01;25.95;;;15.45;;
67274;SDS011;55463;52.324;5.122;2023-02-22T12:25:54;29.40;;;14.85;;
67274;SDS011;55463;52.324;5.122;2023-02-22T12:31:37;26.50;;;15.70;;
67274;SDS011;55463;52.324;5.122;2023-02-22T12:37:12;30.02;;;15.52;;
67274;SDS011;55463;52.324;5.122;2023-02-22T12:49:30;28.60;;;16.13;;
67274;SDS011;55463;52.324;5.122;2023-02-22T12:57:36;25.90;;;15.23;;
67274;SDS011;55463;52.324;5.122;2023-02-22T13:14:58;28.45;;;16.60;;
67274;SDS011;55463;52.324;5.122;2023-02-22T13:52:50;31.20;;;17.00;;
67274;SDS011;55463;52.324;5.122;2023-02-22T13:55:18;29.38;;;16.52;;
67274;SDS011;55463;52.324;5.122;2023-02-22T13:58:06;29.73;;;16.40;;
67274;SDS011;55463;52.324;5.122;2023-02-22T14:06:07;30.15;;;16.95;;
67274;SDS011;55463;52.324;5.122;2023-02-22T14:11:00;29.58;;;16.73;;
67274;SDS011;55463;52.324;5.122;2023-02-22T14:13:30;28.65;;;17.67;;
67274;SDS011;55463;52.324;5.122;2023-02-22T14:19:01;26.63;;;15.82;;
67274;SDS011;55463;52.324;5.122;2023-02-22T14:24:27;32.88;;;17.20;;
67274;SDS011;55463;52.324;5.122;2023-02-22T14:27:01;35.83;;;17.55;;
67274;SDS011;55463;52.324;5.122;2023-02-22T14:29:52;29.08;;;16.33;;
67274;SDS011;55463;52.324;5.122;2023-02-22T14:32:20;32.80;;;16.02;;
67274;SDS011;55463;52.324;5.122;2023-02-22T14:35:13;29.35;;;17.02;;
67274;SDS011;55463;52.324;5.122;2023-02-22T14:37:41;31.55;;;15.55;;
67274;SDS011;55463;52.324;5.122;2023-02-22T14:43:12;35.28;;;18.23;;
67274;SDS011;55463;52.324;5.122;2023-02-22T14:51:13;33.40;;;17.45;;
67274;SDS011;55463;52.324;5.122;2023-02-22T14:53:43;34.70;;;17.52;;
67274;SDS011;55463;52.324;5.122;2023-02-22T14:59:18;32.08;;;17.27;;
67274;SDS011;55463;52.324;5.122;2023-02-22T15:01:46;29.98;;;17.35;;
67274;SDS011;55463;52.324;5.122;2023-02-22T15:04:30;31.08;;;16.38;;
67274;SDS011;55463;52.324;5.122;2023-02-22T15:06:57;27.05;;;16.30;;
67274;SDS011;55463;52.324;5.122;2023-02-22T15:09:26;27.48;;;15.07;;
67274;SDS011;55463;52.324;5.122;2023-02-22T15:14:39;28.33;;;16.52;;
67274;SDS011;55463;52.324;5.122;2023-02-22T15:17:12;27.67;;;15.57;;
67274;SDS011;55463;52.324;5.122;2023-02-22T15:19:43;27.67;;;16.17;;
67274;SDS011;55463;52.324;5.122;2023-02-22T15:25:08;33.15;;;15.85;;
67274;SDS011;55463;52.324;5.122;2023-02-22T15:27:36;29.48;;;16.60;;
67274;SDS011;55463;52.324;5.122;2023-02-22T15:30:06;28.27;;;15.82;;
67274;SDS011;55463;52.324;5.122;2023-02-22T15:32:52;25.88;;;16.27;;
67274;SDS011;55463;52.324;5.122;2023-02-22T15:35:28;26.95;;;15.05;;
67274;SDS011;55463;52.324;5.122;2023-02-22T15:37:58;26.40;;;14.18;;
67274;SDS011;55463;52.324;5.122;2023-02-22T15:43:22;32.20;;;15.68;;
67274;SDS011;55463;52.324;5.122;2023-02-22T15:45:52;26.88;;;15.98;;
67274;SDS011;55463;52.324;5.122;2023-02-22T15:48:38;27.60;;;16.10;;
67274;SDS011;55463;52.324;5.122;2023-02-22T15:51:08;27.48;;;16.48;;
67274;SDS011;55463;52.324;5.122;2023-02-22T15:56:25;30.30;;;16.73;;
67274;SDS011;55463;52.324;5.122;2023-02-22T15:59:11;30.52;;;16.33;;
67274;SDS011;55463;52.324;5.122;2023-02-22T16:01:57;27.02;;;16.55;;
67274;SDS011;55463;52.324;5.122;2023-02-22T16:04:24;29.13;;;16.60;;
67274;SDS011;55463;52.324;5.122;2023-02-22T16:07:07;28.90;;;17.17;;
67274;SDS011;55463;52.324;5.122;2023-02-22T16:09:50;29.95;;;17.73;;
67274;SDS011;55463;52.324;5.122;2023-02-22T16:14:44;31.55;;;17.40;;
67274;SDS011;55463;52.324;5.122;2023-02-22T16:22:46;32.50;;;18.05;;
67274;SDS011;55463;52.324;5.122;2023-02-22T16:30:55;30.42;;;18.30;;
67274;SDS011;55463;52.324;5.122;2023-02-22T16:33:22;32.53;;;16.75;;
67274;SDS011;55463;52.324;5.122;2023-02-22T16:35:47;29.30;;;19.10;;
67274;SDS011;55463;52.324;5.122;2023-02-22T16:38:16;40.40;;;19.58;;
67274;SDS011;55463;52.324;5.122;2023-02-22T16:40:46;33.38;;;19.90;;
67274;SDS011;55463;52.324;5.122;2023-02-22T16:43:17;33.45;;;19.05;;
67274;SDS011;55463;52.324;5.122;2023-02-22T16:45:44;42.83;;;21.67;;
67274;SDS011;55463;52.324;5.122;2023-02-22T16:48:12;33.83;;;19.90;;
67274;SDS011;55463;52.324;5.122;2023-02-22T16:50:40;39.25;;;20.85;;
67274;SDS011;55463;52.324;5.122;2023-02-22T16:53:06;35.95;;;19.48;;
67274;SDS011;55463;52.324;5.122;2023-02-22T16:55:32;33.38;;;20.73;;
67274;SDS011;55463;52.324;5.122;2023-02-22T16:58:01;34.58;;;19.73;;
67274;SDS011;55463;52.324;5.122;2023-02-22T17:00:27;31.23;;;19.88;;
67274;SDS011;55463;52.324;5.122;2023-02-22T17:03:04;38.30;;;21.48;;
67274;SDS011;55463;52.324;5.122;2023-02-22T17:05:30;41.50;;;21.80;;
67274;SDS011;55463;52.324;5.122;2023-02-22T17:08:00;34.77;;;20.53;;
67274;SDS011;55463;52.324;5.122;2023-02-22T17:10:25;38.20;;;20.25;;
67274;SDS011;55463;52.324;5.122;2023-02-22T17:12:51;44.13;;;22.27;;
67274;SDS011;55463;52.324;5.122;2023-02-22T17:15:22;31.88;;;19.55;;
67274;SDS011;55463;52.324;5.122;2023-02-22T17:17:50;40.28;;;20.92;;
67274;SDS011;55463;52.324;5.122;2023-02-22T17:20:16;42.83;;;21.52;;
67274;SDS011;55463;52.324;5.122;2023-02-22T17:22:53;38.25;;;20.30;;
67274;SDS011;55463;52.324;5.122;2023-02-22T17:25:53;35.53;;;21.35;;
67274;SDS011;55463;52.324;5.122;2023-02-22T17:28:25;39.03;;;22.42;;
67274;SDS011;55463;52.324;5.122;2023-02-22T17:30:51;40.20;;;22.92;;
67274;SDS011;55463;52.324;5.122;2023-02-22T17:33:18;37.88;;;22.40;;
67274;SDS011;55463;52.324;5.122;2023-02-22T17:35:46;35.95;;;21.48;;
67274;SDS011;55463;52.324;5.122;2023-02-22T17:38:12;33.17;;;21.20;;
67274;SDS011;55463;52.324;5.122;2023-02-22T17:40:42;36.15;;;20.75;;
67274;SDS011;55463;52.324;5.122;2023-02-22T17:43:09;44.08;;;22.27;;
67274;SDS011;55463;52.324;5.122;2023-02-22T17:45:37;37.00;;;21.50;;
67274;SDS011;55463;52.324;5.122;2023-02-22T17:48:05;38.42;;;22.90;;
67274;SDS011;55463;52.324;5.122;2023-02-22T17:50:30;40.40;;;22.80;;
67274;SDS011;55463;52.324;5.122;2023-02-22T17:52:56;35.97;;;21.88;;
67274;SDS011;55463;52.324;5.122;2023-02-22T17:55:24;40.40;;;23.20;;
67274;SDS011;55463;52.324;5.122;2023-02-22T17:57:51;40.85;;;23.77;;
67274;SDS011;55463;52.324;5.122;2023-02-22T18:00:22;39.72;;;25.05;;
67274;SDS011;55463;52.324;5.122;2023-02-22T18:02:56;37.80;;;23.75;;
67274;SDS011;55463;52.324;5.122;2023-02-22T18:05:26;44.90;;;24.55;;
67274;SDS011;55463;52.324;5.122;2023-02-22T18:07:52;42.15;;;23.98;;
67274;SDS011;55463;52.324;5.122;2023-02-22T18:10:18;45.67;;;24.33;;
67274;SDS011;55463;52.324;5.122;2023-02-22T18:12:45;42.65;;;24.52;;
67274;SDS011;55463;52.324;5.122;2023-02-22T18:15:12;42.58;;;24.20;;
67274;SDS011;55463;52.324;5.122;2023-02-22T18:17:42;49.50;;;24.23;;
67274;SDS011;55463;52.324;5.122;2023-02-22T18:20:11;52.85;;;25.77;;
67274;SDS011;55463;52.324;5.122;2023-02-22T18:22:39;42.45;;;24.63;;
67274;SDS011;55463;52.324;5.122;2023-02-22T18:25:07;43.08;;;25.13;;
67274;SDS011;55463;52.324;5.122;2023-02-22T18:27:37;50.65;;;26.30;;
67274;SDS011;55463;52.324;5.122;2023-02-22T18:30:03;50.70;;;26.92;;
67274;SDS011;55463;52.324;5.122;2023-02-22T18:32:29;65.60;;;31.20;;
67274;SDS011;55463;52.324;5.122;2023-02-22T18:34:58;63.85;;;31.90;;
67274;SDS011;55463;52.324;5.122;2023-02-22T18:37:24;62.03;;;33.17;;
67274;SDS011;55463;52.324;5.122;2023-02-22T18:39:52;69.13;;;34.45;;
67274;SDS011;55463;52.324;5.122;2023-02-22T18:42:25;67.15;;;35.00;;